sensor_id;sensor_type;location;lat;lon;timestamp;temperature;humidity
63899;HTU21D;50070;-32.946;-60.652;2022-12-07T00:01:26;35.45;24.23
63899;HTU21D;50070;-32.946;-60.652;2022-12-07T00:03:55;35.20;24.46
63899;HTU21D;50070;-32.946;-60.652;2022-12-07T00:06:38;35.25;24.01
63899;HTU21D;50070;-32.946;-60.652;2022-12-07T00:09:08;35.22;24.32
63899;HTU21D;50070;-32.946;-60.652;2022-12-07T00:11:35;35.16;24.33
63899;HTU21D;50070;-32.946;-60.652;2022-12-07T00:14:05;35.13;24.27
63899;HTU21D;50070;-32.946;-60.652;2022-12-07T00:16:33;35.18;24.17
63899;HTU21D;50070;-32.946;-60.652;2022-12-07T00:19:02;35.11;23.96
63899;HTU21D;50070;-32.946;-60.652;2022-12-07T00:21:31;35.12;24.11
63899;HTU21D;50070;-32.946;-60.652;2022-12-07T00:23:58;35.12;23.66
63899;HTU21D;50070;-32.946;-60.652;2022-12-07T00:26:31;35.27;23.40
63899;HTU21D;50070;-32.946;-60.652;2022-12-07T00:29:06;35.21;23.09
63899;HTU21D;50070;-32.946;-60.652;2022-12-07T00:31:34;35.13;23.68
63899;HTU21D;50070;-32.946;-60.652;2022-12-07T00:34:05;35.06;24.51
63899;HTU21D;50070;-32.946;-60.652;2022-12-07T00:36:33;34.86;25.56
63899;HTU21D;50070;-32.946;-60.652;2022-12-07T00:39:00;34.93;25.80
63899;HTU21D;50070;-32.946;-60.652;2022-12-07T00:41:29;34.92;26.14
63899;HTU21D;50070;-32.946;-60.652;2022-12-07T00:43:57;34.94;26.36
63899;HTU21D;50070;-32.946;-60.652;2022-12-07T00:46:24;34.86;26.53
63899;HTU21D;50070;-32.946;-60.652;2022-12-07T00:48:54;34.80;26.67
63899;HTU21D;50070;-32.946;-60.652;2022-12-07T00:51:23;34.92;26.50
63899;HTU21D;50070;-32.946;-60.652;2022-12-07T00:53:51;34.84;27.78
63899;HTU21D;50070;-32.946;-60.652;2022-12-07T00:56:21;34.55;28.03
63899;HTU21D;50070;-32.946;-60.652;2022-12-07T00:58:57;34.54;28.20
63899;HTU21D;50070;-32.946;-60.652;2022-12-07T01:01:26;34.55;26.81
63899;HTU21D;50070;-32.946;-60.652;2022-12-07T01:03:53;34.63;26.88
63899;HTU21D;50070;-32.946;-60.652;2022-12-07T01:06:23;34.34;26.77
63899;HTU21D;50070;-32.946;-60.652;2022-12-07T01:08:51;34.49;26.34
63899;HTU21D;50070;-32.946;-60.652;2022-12-07T01:11:22;34.35;26.81
63899;HTU21D;50070;-32.946;-60.652;2022-12-07T01:13:54;34.35;27.05
63899;HTU21D;50070;-32.946;-60.652;2022-12-07T01:16:21;34.48;27.28
63899;HTU21D;50070;-32.946;-60.652;2022-12-07T01:18:53;34.36;27.59
63899;HTU21D;50070;-32.946;-60.652;2022-12-07T01:21:23;34.45;27.49
63899;HTU21D;50070;-32.946;-60.652;2022-12-07T01:23:50;34.33;27.13
63899;HTU21D;50070;-32.946;-60.652;2022-12-07T01:26:22;34.34;27.20
63899;HTU21D;50070;-32.946;-60.652;2022-12-07T01:28:50;34.26;27.17
63899;HTU21D;50070;-32.946;-60.652;2022-12-07T01:31:19;34.48;26.84
63899;HTU21D;50070;-32.946;-60.652;2022-12-07T01:33:50;34.22;27.26
63899;HTU21D;50070;-32.946;-60.652;2022-12-07T01:36:28;34.32;27.41
63899;HTU21D;50070;-32.946;-60.652;2022-12-07T01:38:55;33.90;28.25
63899;HTU21D;50070;-32.946;-60.652;2022-12-07T01:41:24;34.03;28.29
63899;HTU21D;50070;-32.946;-60.652;2022-12-07T01:44:15;34.14;28.26
63899;HTU21D;50070;-32.946;-60.652;2022-12-07T01:46:47;33.73;29.82
63899;HTU21D;50070;-32.946;-60.652;2022-12-07T01:49:18;33.48;31.24
63899;HTU21D;50070;-32.946;-60.652;2022-12-07T01:51:48;33.33;31.89
63899;HTU21D;50070;-32.946;-60.652;2022-12-07T01:54:16;33.27;31.95
63899;HTU21D;50070;-32.946;-60.652;2022-12-07T01:56:49;33.33;31.92
63899;HTU21D;50070;-32.946;-60.652;2022-12-07T01:59:19;33.32;31.63
63899;HTU21D;50070;-32.946;-60.652;2022-12-07T02:01:47;33.46;30.32
63899;HTU21D;50070;-32.946;-60.652;2022-12-07T02:04:14;33.66;30.00
63899;HTU21D;50070;-32.946;-60.652;2022-12-07T02:06:41;33.67;28.75
63899;HTU21D;50070;-32.946;-60.652;2022-12-07T02:09:09;33.56;29.31
63899;HTU21D;50070;-32.946;-60.652;2022-12-07T02:11:36;33.53;29.04
63899;HTU21D;50070;-32.946;-60.652;2022-12-07T02:14:03;33.47;29.24
63899;HTU21D;50070;-32.946;-60.652;2022-12-07T02:16:33;33.42;28.93
63899;HTU21D;50070;-32.946;-60.652;2022-12-07T02:27:46;33.21;30.77
63899;HTU21D;50070;-32.946;-60.652;2022-12-07T02:30:21;33.45;30.62
63899;HTU21D;50070;-32.946;-60.652;2022-12-07T02:36:10;33.17;30.75
63899;HTU21D;50070;-32.946;-60.652;2022-12-07T02:41:33;33.29;30.63
63899;HTU21D;50070;-32.946;-60.652;2022-12-07T02:44:06;33.16;30.30
63899;HTU21D;50070;-32.946;-60.652;2022-12-07T02:46:42;33.14;30.58
63899;HTU21D;50070;-32.946;-60.652;2022-12-07T02:49:09;33.12;29.90
63899;HTU21D;50070;-32.946;-60.652;2022-12-07T02:51:42;33.20;30.03
63899;HTU21D;50070;-32.946;-60.652;2022-12-07T02:54:13;33.06;30.67
63899;HTU21D;50070;-32.946;-60.652;2022-12-07T03:01:55;32.98;30.96
63899;HTU21D;50070;-32.946;-60.652;2022-12-07T03:13:19;32.41;32.10
63899;HTU21D;50070;-32.946;-60.652;2022-12-07T03:18:27;32.68;32.54
63899;HTU21D;50070;-32.946;-60.652;2022-12-07T03:20:57;32.54;31.09
63899;HTU21D;50070;-32.946;-60.652;2022-12-07T03:23:25;32.46;32.76
63899;HTU21D;50070;-32.946;-60.652;2022-12-07T03:25:57;32.30;32.31
63899;HTU21D;50070;-32.946;-60.652;2022-12-07T03:28:29;32.18;33.88
63899;HTU21D;50070;-32.946;-60.652;2022-12-07T03:31:07;32.11;34.15
63899;HTU21D;50070;-32.946;-60.652;2022-12-07T03:33:46;32.02;33.92
63899;HTU21D;50070;-32.946;-60.652;2022-12-07T03:39:02;32.08;33.35
63899;HTU21D;50070;-32.946;-60.652;2022-12-07T03:41:32;32.07;32.93
63899;HTU21D;50070;-32.946;-60.652;2022-12-07T03:44:00;32.11;33.06
63899;HTU21D;50070;-32.946;-60.652;2022-12-07T03:46:41;32.13;33.13
63899;HTU21D;50070;-32.946;-60.652;2022-12-07T03:57:22;31.57;35.10
63899;HTU21D;50070;-32.946;-60.652;2022-12-07T03:59:51;31.52;35.17
63899;HTU21D;50070;-32.946;-60.652;2022-12-07T04:02:20;31.54;35.13
63899;HTU21D;50070;-32.946;-60.652;2022-12-07T04:04:47;31.48;35.29
63899;HTU21D;50070;-32.946;-60.652;2022-12-07T04:07:13;31.53;34.84
63899;HTU21D;50070;-32.946;-60.652;2022-12-07T04:09:42;31.36;34.83
63899;HTU21D;50070;-32.946;-60.652;2022-12-07T04:12:09;31.30;34.67
63899;HTU21D;50070;-32.946;-60.652;2022-12-07T04:14:36;31.46;34.15
63899;HTU21D;50070;-32.946;-60.652;2022-12-07T04:17:03;31.50;33.94
63899;HTU21D;50070;-32.946;-60.652;2022-12-07T04:19:32;31.40;34.27
63899;HTU21D;50070;-32.946;-60.652;2022-12-07T04:22:01;31.36;34.08
63899;HTU21D;50070;-32.946;-60.652;2022-12-07T04:24:28;31.29;33.02
63899;HTU21D;50070;-32.946;-60.652;2022-12-07T04:26:55;31.22;33.93
63899;HTU21D;50070;-32.946;-60.652;2022-12-07T04:29:23;31.27;33.34
63899;HTU21D;50070;-32.946;-60.652;2022-12-07T04:31:50;30.94;33.94
63899;HTU21D;50070;-32.946;-60.652;2022-12-07T04:34:17;30.96;33.84
63899;HTU21D;50070;-32.946;-60.652;2022-12-07T04:36:45;31.02;33.34
63899;HTU21D;50070;-32.946;-60.652;2022-12-07T04:39:26;30.86;33.55
63899;HTU21D;50070;-32.946;-60.652;2022-12-07T04:41:53;31.07;33.52
63899;HTU21D;50070;-32.946;-60.652;2022-12-07T04:44:21;31.02;33.10
63899;HTU21D;50070;-32.946;-60.652;2022-12-07T04:46:49;31.04;33.43
63899;HTU21D;50070;-32.946;-60.652;2022-12-07T04:49:16;31.05;33.52
63899;HTU21D;50070;-32.946;-60.652;2022-12-07T04:51:44;31.07;33.63
63899;HTU21D;50070;-32.946;-60.652;2022-12-07T04:54:11;30.92;33.85
63899;HTU21D;50070;-32.946;-60.652;2022-12-07T04:56:40;30.85;34.08
63899;HTU21D;50070;-32.946;-60.652;2022-12-07T04:59:07;30.89;33.89
63899;HTU21D;50070;-32.946;-60.652;2022-12-07T05:01:34;30.74;34.17
63899;HTU21D;50070;-32.946;-60.652;2022-12-07T05:04:01;30.55;34.92
63899;HTU21D;50070;-32.946;-60.652;2022-12-07T05:06:28;30.64;34.43
63899;HTU21D;50070;-32.946;-60.652;2022-12-07T05:08:54;30.55;34.71
63899;HTU21D;50070;-32.946;-60.652;2022-12-07T05:11:21;30.27;34.41
63899;HTU21D;50070;-32.946;-60.652;2022-12-07T05:14:20;30.40;33.74
63899;HTU21D;50070;-32.946;-60.652;2022-12-07T05:16:50;30.25;33.73
63899;HTU21D;50070;-32.946;-60.652;2022-12-07T05:19:18;30.37;33.54
63899;HTU21D;50070;-32.946;-60.652;2022-12-07T05:21:45;30.28;33.52
63899;HTU21D;50070;-32.946;-60.652;2022-12-07T05:24:14;30.21;32.86
63899;HTU21D;50070;-32.946;-60.652;2022-12-07T05:26:44;30.16;33.12
63899;HTU21D;50070;-32.946;-60.652;2022-12-07T05:29:12;30.09;33.38
63899;HTU21D;50070;-32.946;-60.652;2022-12-07T05:31:39;30.09;33.50
63899;HTU21D;50070;-32.946;-60.652;2022-12-07T05:34:06;30.37;32.86
63899;HTU21D;50070;-32.946;-60.652;2022-12-07T05:36:33;30.34;32.55
63899;HTU21D;50070;-32.946;-60.652;2022-12-07T05:39:03;30.31;33.41
63899;HTU21D;50070;-32.946;-60.652;2022-12-07T05:41:29;29.77;34.09
63899;HTU21D;50070;-32.946;-60.652;2022-12-07T05:44:14;29.75;34.31
63899;HTU21D;50070;-32.946;-60.652;2022-12-07T05:46:41;29.63;34.69
63899;HTU21D;50070;-32.946;-60.652;2022-12-07T05:49:08;30.05;33.89
63899;HTU21D;50070;-32.946;-60.652;2022-12-07T05:51:35;30.09;33.41
63899;HTU21D;50070;-32.946;-60.652;2022-12-07T05:54:02;30.16;33.68
63899;HTU21D;50070;-32.946;-60.652;2022-12-07T05:56:28;29.70;34.63
63899;HTU21D;50070;-32.946;-60.652;2022-12-07T05:58:55;29.52;34.90
63899;HTU21D;50070;-32.946;-60.652;2022-12-07T06:01:40;29.51;34.88
63899;HTU21D;50070;-32.946;-60.652;2022-12-07T06:04:07;29.76;33.84
63899;HTU21D;50070;-32.946;-60.652;2022-12-07T06:06:34;29.81;33.70
63899;HTU21D;50070;-32.946;-60.652;2022-12-07T06:09:02;29.86;33.66
63899;HTU21D;50070;-32.946;-60.652;2022-12-07T06:11:29;29.74;34.09
63899;HTU21D;50070;-32.946;-60.652;2022-12-07T06:14:14;29.48;34.76
63899;HTU21D;50070;-32.946;-60.652;2022-12-07T06:16:40;29.65;34.26
63899;HTU21D;50070;-32.946;-60.652;2022-12-07T06:19:07;29.81;34.64
63899;HTU21D;50070;-32.946;-60.652;2022-12-07T06:21:34;29.59;35.17
63899;HTU21D;50070;-32.946;-60.652;2022-12-07T06:24:01;29.81;34.32
63899;HTU21D;50070;-32.946;-60.652;2022-12-07T06:26:28;29.71;35.00
63899;HTU21D;50070;-32.946;-60.652;2022-12-07T06:28:54;29.59;35.31
63899;HTU21D;50070;-32.946;-60.652;2022-12-07T06:31:22;29.47;35.72
63899;HTU21D;50070;-32.946;-60.652;2022-12-07T06:33:48;29.62;35.05
63899;HTU21D;50070;-32.946;-60.652;2022-12-07T06:36:15;29.88;34.61
63899;HTU21D;50070;-32.946;-60.652;2022-12-07T06:38:42;30.00;34.56
63899;HTU21D;50070;-32.946;-60.652;2022-12-07T06:41:09;30.04;34.66
63899;HTU21D;50070;-32.946;-60.652;2022-12-07T06:43:35;29.86;35.48
63899;HTU21D;50070;-32.946;-60.652;2022-12-07T06:46:02;29.86;35.18
63899;HTU21D;50070;-32.946;-60.652;2022-12-07T06:48:29;29.86;35.34
63899;HTU21D;50070;-32.946;-60.652;2022-12-07T06:50:56;29.81;35.78
63899;HTU21D;50070;-32.946;-60.652;2022-12-07T06:53:23;29.77;35.93
63899;HTU21D;50070;-32.946;-60.652;2022-12-07T06:55:49;29.93;35.60
63899;HTU21D;50070;-32.946;-60.652;2022-12-07T06:58:17;29.90;35.97
63899;HTU21D;50070;-32.946;-60.652;2022-12-07T07:00:44;29.74;36.54
63899;HTU21D;50070;-32.946;-60.652;2022-12-07T07:03:11;29.64;37.32
63899;HTU21D;50070;-32.946;-60.652;2022-12-07T07:05:38;29.20;38.20
63899;HTU21D;50070;-32.946;-60.652;2022-12-07T07:08:07;29.24;37.91
63899;HTU21D;50070;-32.946;-60.652;2022-12-07T07:10:34;29.27;38.30
63899;HTU21D;50070;-32.946;-60.652;2022-12-07T07:13:01;29.36;37.63
63899;HTU21D;50070;-32.946;-60.652;2022-12-07T07:15:31;29.27;37.43
63899;HTU21D;50070;-32.946;-60.652;2022-12-07T07:17:58;29.19;37.63
63899;HTU21D;50070;-32.946;-60.652;2022-12-07T07:20:25;29.19;37.81
63899;HTU21D;50070;-32.946;-60.652;2022-12-07T07:22:54;28.86;38.72
63899;HTU21D;50070;-32.946;-60.652;2022-12-07T07:25:22;29.04;38.21
63899;HTU21D;50070;-32.946;-60.652;2022-12-07T07:27:48;29.15;37.82
63899;HTU21D;50070;-32.946;-60.652;2022-12-07T07:30:15;29.04;38.17
63899;HTU21D;50070;-32.946;-60.652;2022-12-07T07:32:41;28.97;38.23
63899;HTU21D;50070;-32.946;-60.652;2022-12-07T07:35:08;28.88;38.51
63899;HTU21D;50070;-32.946;-60.652;2022-12-07T07:37:35;29.11;37.75
63899;HTU21D;50070;-32.946;-60.652;2022-12-07T07:40:02;28.91;38.23
63899;HTU21D;50070;-32.946;-60.652;2022-12-07T07:42:28;28.80;38.66
63899;HTU21D;50070;-32.946;-60.652;2022-12-07T07:44:55;28.30;40.34
63899;HTU21D;50070;-32.946;-60.652;2022-12-07T07:47:22;28.84;38.18
63899;HTU21D;50070;-32.946;-60.652;2022-12-07T07:49:49;28.78;38.49
63899;HTU21D;50070;-32.946;-60.652;2022-12-07T07:52:15;28.91;38.32
63899;HTU21D;50070;-32.946;-60.652;2022-12-07T07:54:42;28.87;38.49
63899;HTU21D;50070;-32.946;-60.652;2022-12-07T07:57:09;28.85;38.76
63899;HTU21D;50070;-32.946;-60.652;2022-12-07T07:59:35;28.63;39.44
63899;HTU21D;50070;-32.946;-60.652;2022-12-07T08:02:02;28.72;39.33
63899;HTU21D;50070;-32.946;-60.652;2022-12-07T08:04:29;28.86;39.03
63899;HTU21D;50070;-32.946;-60.652;2022-12-07T08:06:57;28.80;39.43
63899;HTU21D;50070;-32.946;-60.652;2022-12-07T08:09:23;28.85;39.49
63899;HTU21D;50070;-32.946;-60.652;2022-12-07T08:11:50;28.89;39.60
63899;HTU21D;50070;-32.946;-60.652;2022-12-07T08:14:17;28.86;39.93
63899;HTU21D;50070;-32.946;-60.652;2022-12-07T08:16:44;28.79;40.39
63899;HTU21D;50070;-32.946;-60.652;2022-12-07T08:19:10;28.88;40.34
63899;HTU21D;50070;-32.946;-60.652;2022-12-07T08:21:37;28.86;40.65
63899;HTU21D;50070;-32.946;-60.652;2022-12-07T08:24:04;28.77;41.22
63899;HTU21D;50070;-32.946;-60.652;2022-12-07T08:26:31;28.72;41.44
63899;HTU21D;50070;-32.946;-60.652;2022-12-07T08:28:58;28.80;41.41
63899;HTU21D;50070;-32.946;-60.652;2022-12-07T08:31:25;28.80;41.40
63899;HTU21D;50070;-32.946;-60.652;2022-12-07T08:33:53;28.90;41.58
63899;HTU21D;50070;-32.946;-60.652;2022-12-07T08:36:21;28.77;42.18
63899;HTU21D;50070;-32.946;-60.652;2022-12-07T08:38:49;28.80;42.29
63899;HTU21D;50070;-32.946;-60.652;2022-12-07T08:41:16;28.72;42.55
63899;HTU21D;50070;-32.946;-60.652;2022-12-07T08:43:43;28.99;41.94
63899;HTU21D;50070;-32.946;-60.652;2022-12-07T08:48:55;29.02;42.22
63899;HTU21D;50070;-32.946;-60.652;2022-12-07T08:51:23;28.89;42.82
63899;HTU21D;50070;-32.946;-60.652;2022-12-07T08:53:51;28.55;43.95
63899;HTU21D;50070;-32.946;-60.652;2022-12-07T08:56:19;28.76;43.61
63899;HTU21D;50070;-32.946;-60.652;2022-12-07T08:58:46;28.77;43.61
63899;HTU21D;50070;-32.946;-60.652;2022-12-07T09:01:12;28.65;44.06
63899;HTU21D;50070;-32.946;-60.652;2022-12-07T09:03:39;28.40;44.90
63899;HTU21D;50070;-32.946;-60.652;2022-12-07T09:06:06;28.60;44.60
63899;HTU21D;50070;-32.946;-60.652;2022-12-07T09:08:38;28.65;44.42
63899;HTU21D;50070;-32.946;-60.652;2022-12-07T09:11:06;28.63;44.58
63899;HTU21D;50070;-32.946;-60.652;2022-12-07T09:13:32;28.76;44.39
63899;HTU21D;50070;-32.946;-60.652;2022-12-07T09:15:59;28.80;44.35
63899;HTU21D;50070;-32.946;-60.652;2022-12-07T09:18:29;28.99;44.04
63899;HTU21D;50070;-32.946;-60.652;2022-12-07T09:20:56;28.72;44.90
63899;HTU21D;50070;-32.946;-60.652;2022-12-07T09:23:24;28.92;44.60
63899;HTU21D;50070;-32.946;-60.652;2022-12-07T09:25:51;29.05;44.37
63899;HTU21D;50070;-32.946;-60.652;2022-12-07T09:28:18;28.99;44.71
63899;HTU21D;50070;-32.946;-60.652;2022-12-07T09:30:48;29.04;44.74
63899;HTU21D;50070;-32.946;-60.652;2022-12-07T09:33:15;28.97;45.06
63899;HTU21D;50070;-32.946;-60.652;2022-12-07T09:35:46;28.92;45.29
63899;HTU21D;50070;-32.946;-60.652;2022-12-07T09:38:14;28.83;45.63
63899;HTU21D;50070;-32.946;-60.652;2022-12-07T09:40:41;28.97;45.41
63899;HTU21D;50070;-32.946;-60.652;2022-12-07T09:43:22;28.60;46.08
63899;HTU21D;50070;-32.946;-60.652;2022-12-07T09:45:52;28.75;45.70
63899;HTU21D;50070;-32.946;-60.652;2022-12-07T09:51:22;28.80;45.80
63899;HTU21D;50070;-32.946;-60.652;2022-12-07T09:53:51;28.75;46.10
63899;HTU21D;50070;-32.946;-60.652;2022-12-07T09:56:19;28.95;45.77
63899;HTU21D;50070;-32.946;-60.652;2022-12-07T09:58:47;28.83;46.17
63899;HTU21D;50070;-32.946;-60.652;2022-12-07T10:01:17;28.87;46.06
63899;HTU21D;50070;-32.946;-60.652;2022-12-07T10:04:39;28.92;45.99
63899;HTU21D;50070;-32.946;-60.652;2022-12-07T10:06:47;28.91;46.19
63899;HTU21D;50070;-32.946;-60.652;2022-12-07T10:09:18;29.00;45.90
63899;HTU21D;50070;-32.946;-60.652;2022-12-07T10:12:17;28.98;45.99
63899;HTU21D;50070;-32.946;-60.652;2022-12-07T10:14:59;29.01;46.11
63899;HTU21D;50070;-32.946;-60.652;2022-12-07T10:17:37;28.83;46.70
63899;HTU21D;50070;-32.946;-60.652;2022-12-07T10:22:58;29.02;46.30
63899;HTU21D;50070;-32.946;-60.652;2022-12-07T10:25:30;28.84;46.76
63899;HTU21D;50070;-32.946;-60.652;2022-12-07T10:30:27;28.73;47.24
63899;HTU21D;50070;-32.946;-60.652;2022-12-07T10:32:54;28.70;47.42
63899;HTU21D;50070;-32.946;-60.652;2022-12-07T10:37:48;28.56;47.89
63899;HTU21D;50070;-32.946;-60.652;2022-12-07T10:40:30;28.69;47.67
63899;HTU21D;50070;-32.946;-60.652;2022-12-07T10:58:14;29.56;46.51
63899;HTU21D;50070;-32.946;-60.652;2022-12-07T11:04:02;29.80;46.14
63899;HTU21D;50070;-32.946;-60.652;2022-12-07T11:06:54;29.86;45.82
63899;HTU21D;50070;-32.946;-60.652;2022-12-07T11:21:13;30.87;42.32
63899;HTU21D;50070;-32.946;-60.652;2022-12-07T11:37:40;31.51;41.03
63899;HTU21D;50070;-32.946;-60.652;2022-12-07T11:42:59;31.42;41.17
63899;HTU21D;50070;-32.946;-60.652;2022-12-07T11:45:31;31.53;41.29
63899;HTU21D;50070;-32.946;-60.652;2022-12-07T11:48:28;31.65;40.62
63899;HTU21D;50070;-32.946;-60.652;2022-12-07T11:50:54;32.23;39.44
63899;HTU21D;50070;-32.946;-60.652;2022-12-07T11:53:38;32.87;38.09
63899;HTU21D;50070;-32.946;-60.652;2022-12-07T11:56:14;32.77;38.81
63899;HTU21D;50070;-32.946;-60.652;2022-12-07T12:04:16;32.62;38.65
63899;HTU21D;50070;-32.946;-60.652;2022-12-07T12:06:48;32.35;39.03
63899;HTU21D;50070;-32.946;-60.652;2022-12-07T12:09:26;32.68;38.91
63899;HTU21D;50070;-32.946;-60.652;2022-12-07T12:18:00;33.02;38.72
63899;HTU21D;50070;-32.946;-60.652;2022-12-07T12:20:40;33.25;38.27
63899;HTU21D;50070;-32.946;-60.652;2022-12-07T12:23:35;33.43;38.00
63899;HTU21D;50070;-32.946;-60.652;2022-12-07T12:26:07;33.62;37.68
63899;HTU21D;50070;-32.946;-60.652;2022-12-07T12:28:39;33.73;37.04
63899;HTU21D;50070;-32.946;-60.652;2022-12-07T12:31:16;33.74;37.52
63899;HTU21D;50070;-32.946;-60.652;2022-12-07T12:34:00;33.16;38.57
63899;HTU21D;50070;-32.946;-60.652;2022-12-07T12:36:43;33.72;37.31
63899;HTU21D;50070;-32.946;-60.652;2022-12-07T12:39:18;34.05;36.80
63899;HTU21D;50070;-32.946;-60.652;2022-12-07T12:41:51;34.06;37.07
63899;HTU21D;50070;-32.946;-60.652;2022-12-07T12:54:29;34.39;36.11
63899;HTU21D;50070;-32.946;-60.652;2022-12-07T13:00:14;33.97;36.23
63899;HTU21D;50070;-32.946;-60.652;2022-12-07T13:02:32;34.83;34.71
63899;HTU21D;50070;-32.946;-60.652;2022-12-07T13:10:41;34.56;35.41
63899;HTU21D;50070;-32.946;-60.652;2022-12-07T13:31:46;35.84;32.13
63899;HTU21D;50070;-32.946;-60.652;2022-12-07T13:34:47;35.94;32.38
63899;HTU21D;50070;-32.946;-60.652;2022-12-07T13:37:30;36.33;30.78
63899;HTU21D;50070;-32.946;-60.652;2022-12-07T13:40:23;36.55;30.37
63899;HTU21D;50070;-32.946;-60.652;2022-12-07T13:42:56;36.10;31.46
63899;HTU21D;50070;-32.946;-60.652;2022-12-07T13:45:27;36.60;30.11
63899;HTU21D;50070;-32.946;-60.652;2022-12-07T13:48:30;36.68;29.69
63899;HTU21D;50070;-32.946;-60.652;2022-12-07T13:50:59;36.41;30.02
63899;HTU21D;50070;-32.946;-60.652;2022-12-07T13:53:27;36.48;29.61
63899;HTU21D;50070;-32.946;-60.652;2022-12-07T13:56:00;36.17;30.33
63899;HTU21D;50070;-32.946;-60.652;2022-12-07T13:58:30;36.59;29.47
63899;HTU21D;50070;-32.946;-60.652;2022-12-07T14:00:58;36.66;29.74
63899;HTU21D;50070;-32.946;-60.652;2022-12-07T14:03:33;37.30;28.58
63899;HTU21D;50070;-32.946;-60.652;2022-12-07T14:06:24;36.48;29.07
63899;HTU21D;50070;-32.946;-60.652;2022-12-07T14:11:45;36.18;29.39
63899;HTU21D;50070;-32.946;-60.652;2022-12-07T14:14:30;36.44;29.14
63899;HTU21D;50070;-32.946;-60.652;2022-12-07T14:17:12;36.34;28.33
63899;HTU21D;50070;-32.946;-60.652;2022-12-07T14:19:51;36.34;29.29
63899;HTU21D;50070;-32.946;-60.652;2022-12-07T14:25:09;36.75;26.46
63899;HTU21D;50070;-32.946;-60.652;2022-12-07T14:27:38;36.41;27.42
63899;HTU21D;50070;-32.946;-60.652;2022-12-07T14:30:14;36.42;25.19
63899;HTU21D;50070;-32.946;-60.652;2022-12-07T14:32:41;36.99;25.29
63899;HTU21D;50070;-32.946;-60.652;2022-12-07T14:35:16;36.22;23.69
63899;HTU21D;50070;-32.946;-60.652;2022-12-07T14:37:47;36.69;24.77
63899;HTU21D;50070;-32.946;-60.652;2022-12-07T14:40:19;37.06;22.94
63899;HTU21D;50070;-32.946;-60.652;2022-12-07T14:42:53;36.88;21.92
63899;HTU21D;50070;-32.946;-60.652;2022-12-07T14:45:22;37.25;20.25
63899;HTU21D;50070;-32.946;-60.652;2022-12-07T14:47:49;37.80;19.89
63899;HTU21D;50070;-32.946;-60.652;2022-12-07T14:50:20;37.74;20.19
63899;HTU21D;50070;-32.946;-60.652;2022-12-07T14:52:52;38.02;20.18
63899;HTU21D;50070;-32.946;-60.652;2022-12-07T14:55:24;37.89;20.41
63899;HTU21D;50070;-32.946;-60.652;2022-12-07T14:57:51;38.24;19.31
63899;HTU21D;50070;-32.946;-60.652;2022-12-07T15:00:19;38.45;18.81
63899;HTU21D;50070;-32.946;-60.652;2022-12-07T15:02:47;38.22;20.52
63899;HTU21D;50070;-32.946;-60.652;2022-12-07T15:05:15;37.64;21.28
63899;HTU21D;50070;-32.946;-60.652;2022-12-07T15:07:42;37.71;21.59
63899;HTU21D;50070;-32.946;-60.652;2022-12-07T15:10:19;37.78;21.46
63899;HTU21D;50070;-32.946;-60.652;2022-12-07T15:12:46;37.90;20.84
63899;HTU21D;50070;-32.946;-60.652;2022-12-07T15:15:13;38.18;21.06
63899;HTU21D;50070;-32.946;-60.652;2022-12-07T15:17:41;38.22;20.65
63899;HTU21D;50070;-32.946;-60.652;2022-12-07T15:20:15;37.71;21.24
63899;HTU21D;50070;-32.946;-60.652;2022-12-07T15:22:42;38.24;21.02
63899;HTU21D;50070;-32.946;-60.652;2022-12-07T15:25:13;37.89;20.33
63899;HTU21D;50070;-32.946;-60.652;2022-12-07T15:27:40;38.46;19.78
63899;HTU21D;50070;-32.946;-60.652;2022-12-07T15:30:07;38.75;18.76
63899;HTU21D;50070;-32.946;-60.652;2022-12-07T15:32:34;38.70;18.53
63899;HTU21D;50070;-32.946;-60.652;2022-12-07T15:35:01;38.37;18.51
63899;HTU21D;50070;-32.946;-60.652;2022-12-07T15:37:31;38.39;16.88
63899;HTU21D;50070;-32.946;-60.652;2022-12-07T15:39:58;38.54;17.64
63899;HTU21D;50070;-32.946;-60.652;2022-12-07T15:42:25;38.73;17.05
63899;HTU21D;50070;-32.946;-60.652;2022-12-07T15:44:52;38.53;17.94
63899;HTU21D;50070;-32.946;-60.652;2022-12-07T15:47:35;38.79;17.96
63899;HTU21D;50070;-32.946;-60.652;2022-12-07T15:50:07;38.93;13.64
63899;HTU21D;50070;-32.946;-60.652;2022-12-07T15:52:36;38.79;15.35
63899;HTU21D;50070;-32.946;-60.652;2022-12-07T15:55:04;39.19;15.54
63899;HTU21D;50070;-32.946;-60.652;2022-12-07T15:57:32;38.19;16.95
63899;HTU21D;50070;-32.946;-60.652;2022-12-07T15:59:59;38.39;16.80
63899;HTU21D;50070;-32.946;-60.652;2022-12-07T16:02:26;39.18;15.94
63899;HTU21D;50070;-32.946;-60.652;2022-12-07T16:04:53;40.10;13.33
63899;HTU21D;50070;-32.946;-60.652;2022-12-07T16:07:20;40.81;10.14
63899;HTU21D;50070;-32.946;-60.652;2022-12-07T16:09:47;40.39;11.65
63899;HTU21D;50070;-32.946;-60.652;2022-12-07T16:12:15;40.86;13.05
63899;HTU21D;50070;-32.946;-60.652;2022-12-07T16:14:42;39.68;13.78
63899;HTU21D;50070;-32.946;-60.652;2022-12-07T16:17:10;40.35;13.22
63899;HTU21D;50070;-32.946;-60.652;2022-12-07T16:19:37;40.50;12.47
63899;HTU21D;50070;-32.946;-60.652;2022-12-07T16:22:04;40.88;12.52
63899;HTU21D;50070;-32.946;-60.652;2022-12-07T16:24:33;40.96;11.27
63899;HTU21D;50070;-32.946;-60.652;2022-12-07T16:27:00;40.72;11.09
63899;HTU21D;50070;-32.946;-60.652;2022-12-07T16:29:27;40.53;11.30
63899;HTU21D;50070;-32.946;-60.652;2022-12-07T16:31:54;40.08;9.97
63899;HTU21D;50070;-32.946;-60.652;2022-12-07T16:34:20;40.27;8.82
63899;HTU21D;50070;-32.946;-60.652;2022-12-07T16:36:47;39.73;10.01
63899;HTU21D;50070;-32.946;-60.652;2022-12-07T16:39:14;40.00;10.16
63899;HTU21D;50070;-32.946;-60.652;2022-12-07T16:41:41;39.62;11.42
63899;HTU21D;50070;-32.946;-60.652;2022-12-07T16:44:11;39.99;11.74
63899;HTU21D;50070;-32.946;-60.652;2022-12-07T16:46:40;39.91;12.62
63899;HTU21D;50070;-32.946;-60.652;2022-12-07T16:49:15;39.86;13.06
63899;HTU21D;50070;-32.946;-60.652;2022-12-07T16:51:42;39.29;11.91
63899;HTU21D;50070;-32.946;-60.652;2022-12-07T16:54:11;39.38;10.90
63899;HTU21D;50070;-32.946;-60.652;2022-12-07T16:56:38;39.54;10.53
63899;HTU21D;50070;-32.946;-60.652;2022-12-07T16:59:05;39.43;11.49
63899;HTU21D;50070;-32.946;-60.652;2022-12-07T17:01:32;39.56;12.59
63899;HTU21D;50070;-32.946;-60.652;2022-12-07T17:04:02;39.28;13.38
63899;HTU21D;50070;-32.946;-60.652;2022-12-07T17:06:31;39.45;12.81
63899;HTU21D;50070;-32.946;-60.652;2022-12-07T17:09:00;39.20;14.69
63899;HTU21D;50070;-32.946;-60.652;2022-12-07T17:11:29;39.36;15.29
63899;HTU21D;50070;-32.946;-60.652;2022-12-07T17:13:59;39.42;14.64
63899;HTU21D;50070;-32.946;-60.652;2022-12-07T17:16:44;38.85;16.29
63899;HTU21D;50070;-32.946;-60.652;2022-12-07T17:19:13;38.90;16.64
63899;HTU21D;50070;-32.946;-60.652;2022-12-07T17:21:40;39.05;16.52
63899;HTU21D;50070;-32.946;-60.652;2022-12-07T17:24:10;38.86;17.12
63899;HTU21D;50070;-32.946;-60.652;2022-12-07T17:26:38;38.86;17.47
63899;HTU21D;50070;-32.946;-60.652;2022-12-07T17:29:06;38.95;17.66
63899;HTU21D;50070;-32.946;-60.652;2022-12-07T17:31:34;38.96;17.68